Time;durP1;ratioP1;P1;durP2;ratioP2;P2;SDS_P1;SDS_P2;PMS_P1;PMS_P2;Temp;Humidity;BMP_temperature;BMP_pressure;BME280_temperature;BME280_humidity;BME280_pressure;Samples;Min_cycle;Max_cycle;Signal;HPM_P1;HPM_P2
2021/03/16 00:00:14;;;;;;;0.35;0.35;;;6.90;99.90;;;;;;4982452;28;20022;-92
2021/03/16 00:02:40;;;;;;;0.17;0.17;;;6.80;99.90;;;;;;4985258;28;20045;-91
2021/03/16 00:05:07;;;;;;;0.40;0.40;;;6.70;99.90;;;;;;4989639;28;20030;-91
2021/03/16 00:07:32;;;;;;;0.10;0.10;;;6.50;99.90;;;;;;4986352;28;20391;-91
2021/03/16 00:09:59;;;;;;;0.10;0.10;;;6.50;99.90;;;;;;4988391;28;20065;-91
2021/03/16 00:12:26;;;;;;;0.10;0.10;;;6.70;99.90;;;;;;4986005;28;20030;-90
2021/03/16 00:14:52;;;;;;;0.10;0.10;;;6.80;99.90;;;;;;4988261;28;20070;-91
2021/03/16 00:17:18;;;;;;;0.10;0.10;;;6.80;99.90;;;;;;4984960;28;20038;-90
2021/03/16 00:19:45;;;;;;;0.10;0.10;;;6.90;99.90;;;;;;4986870;28;20026;-90
2021/03/16 00:22:10;;;;;;;;;;;7.00;99.90;;;;;;4985502;28;20445;-90
2021/03/16 00:24:36;;;;;;;0.10;0.10;;;7.00;99.90;;;;;;4988534;28;19964;-91
2021/03/16 00:27:03;;;;;;;6.03;2.60;;;7.10;99.90;;;;;;4988781;28;20722;-90
2021/03/16 00:29:29;;;;;;;0.15;0.15;;;7.10;99.90;;;;;;4985038;28;20031;-91
2021/03/16 00:31:55;;;;;;;0.20;0.20;;;7.10;99.90;;;;;;4986605;28;20100;-90
2021/03/16 00:34:20;;;;;;;0.00;0.00;;;7.10;99.90;;;;;;4981069;28;20037;-90
2021/03/16 00:36:46;;;;;;;0.10;0.10;;;7.00;99.90;;;;;;4986969;28;20023;-89
2021/03/16 00:39:12;;;;;;;0.10;0.10;;;7.00;99.90;;;;;;4985805;28;20085;-91
2021/03/16 00:41:38;;;;;;;0.43;0.43;;;7.00;99.90;;;;;;4980829;28;20057;-91
2021/03/16 00:44:04;;;;;;;0.25;0.25;;;6.90;99.90;;;;;;4987137;28;20031;-92
2021/03/16 00:46:30;;;;;;;0.00;0.00;;;6.80;99.90;;;;;;4985802;28;20041;-89
2021/03/16 00:48:56;;;;;;;0.30;0.30;;;6.80;99.90;;;;;;4986493;28;20426;-91
2021/03/16 00:51:21;;;;;;;5.97;0.93;;;6.80;99.90;;;;;;4983349;28;20018;-91
2021/03/16 00:53:47;;;;;;;0.20;0.20;;;6.80;99.90;;;;;;4992949;28;20060;-92
2021/03/16 00:56:13;;;;;;;0.82;0.82;;;6.70;99.90;;;;;;4989501;28;20026;-91
2021/03/16 00:58:39;;;;;;;0.10;0.10;;;6.60;99.90;;;;;;4989388;28;20260;-91
2021/03/16 01:01:07;;;;;;;0.17;0.17;;;6.50;99.90;;;;;;4987933;28;20023;-91
2021/03/16 01:03:33;;;;;;;0.10;0.10;;;6.50;99.90;;;;;;4979100;28;20035;-89
2021/03/16 01:06:01;;;;;;;0.20;0.20;;;6.40;99.90;;;;;;4984427;28;20030;-90
2021/03/16 01:08:27;;;;;;;0.10;0.10;;;6.40;99.90;;;;;;4982779;28;20042;-90
2021/03/16 01:10:53;;;;;;;1.67;0.65;;;6.30;99.90;;;;;;4984610;28;20030;-90
2021/03/16 01:13:21;;;;;;;0.22;0.22;;;6.40;99.90;;;;;;4985333;28;20070;-90
2021/03/16 01:15:47;;;;;;;0.32;0.32;;;6.30;99.90;;;;;;4989570;28;20085;-90
2021/03/16 01:18:13;;;;;;;0.30;0.30;;;6.40;99.90;;;;;;4990455;28;20027;-90
2021/03/16 01:20:39;;;;;;;0.10;0.10;;;6.30;99.90;;;;;;4991124;28;20165;-90
2021/03/16 01:23:05;;;;;;;2.15;1.35;;;6.20;99.90;;;;;;4986199;28;20061;-90
2021/03/16 01:25:31;;;;;;;0.10;0.10;;;6.20;99.90;;;;;;4990626;28;20038;-90
2021/03/16 01:27:57;;;;;;;0.20;0.20;;;6.30;99.90;;;;;;4986604;28;20141;-90
2021/03/16 01:30:24;;;;;;;0.13;0.13;;;6.30;99.90;;;;;;4981894;28;20038;-91
2021/03/16 01:32:51;;;;;;;0.10;0.10;;;6.20;99.90;;;;;;4990782;28;20040;-91
2021/03/16 01:35:17;;;;;;;;;;;6.10;99.90;;;;;;4991953;28;20081;-91
2021/03/16 01:37:47;;;;;;;0.57;0.57;;;6.10;99.90;;;;;;4988651;28;19914;-91
2021/03/16 01:40:18;;;;;;;0.50;0.50;;;6.00;99.90;;;;;;4990604;28;20034;-91
2021/03/16 01:42:44;;;;;;;0.47;0.47;;;6.00;99.90;;;;;;4989728;28;20104;-91
2021/03/16 01:45:14;;;;;;;3.90;1.75;;;5.90;99.90;;;;;;4988562;28;20043;-91
2021/03/16 01:47:47;;;;;;;0.10;0.10;;;6.00;99.90;;;;;;4988673;28;20506;-90
2021/03/16 01:50:20;;;;;;;0.20;0.20;;;5.90;99.90;;;;;;4987467;28;20517;-91
2021/03/16 01:52:47;;;;;;;0.10;0.10;;;5.80;99.90;;;;;;4981335;28;20019;-90
2021/03/16 01:55:14;;;;;;;0.43;0.43;;;5.80;99.90;;;;;;4984518;28;20037;-90
2021/03/16 01:57:41;;;;;;;0.20;0.20;;;5.90;99.90;;;;;;4988532;28;20026;-90
2021/03/16 02:00:09;;;;;;;0.20;0.20;;;6.00;99.90;;;;;;4991564;28;20077;-91
2021/03/16 02:02:35;;;;;;;0.30;0.30;;;5.80;99.90;;;;;;4987420;28;20034;-90
2021/03/16 02:05:04;;;;;;;0.00;0.00;;;5.80;99.90;;;;;;4988440;28;20125;-90
2021/03/16 02:07:53;;;;;;;0.10;0.10;;;5.80;99.90;;;;;;4988675;28;20030;-90
2021/03/16 02:10:33;;;;;;;0.10;0.10;;;5.90;99.90;;;;;;4993029;28;20069;-90
2021/03/16 02:13:06;;;;;;;0.35;0.35;;;5.70;99.90;;;;;;4984871;28;20053;-90
2021/03/16 02:15:39;;;;;;;0.20;0.20;;;5.80;99.90;;;;;;4987777;28;20510;-89
2021/03/16 02:18:14;;;;;;;0.80;0.75;;;5.80;99.90;;;;;;4988224;28;20061;-89
2021/03/16 02:20:55;;;;;;;2.72;0.60;;;5.70;99.90;;;;;;4987495;28;20074;-89
2021/03/16 02:23:41;;;;;;;0.10;0.10;;;5.80;99.90;;;;;;4985540;28;20049;-89
2021/03/16 02:26:41;;;;;;;0.10;0.10;;;5.80;99.90;;;;;;4986414;28;20034;-89
2021/03/16 02:29:48;;;;;;;0.73;0.73;;;5.80;99.90;;;;;;4922781;29;20057;-89
2021/03/16 02:32:21;;;;;;;0.60;0.60;;;5.70;99.90;;;;;;4873336;29;20071;-89
2021/03/16 02:34:51;;;;;;;0.43;0.43;;;5.70;99.90;;;;;;4872990;29;20152;-88
2021/03/16 02:37:18;;;;;;;2.72;1.95;;;5.70;99.90;;;;;;4853389;29;20169;-89
2021/03/16 02:39:47;;;;;;;0.47;0.47;;;5.60;99.90;;;;;;4870188;29;20056;-89
2021/03/16 02:42:15;;;;;;;0.28;0.28;;;5.60;99.90;;;;;;4872093;29;20048;-88
2021/03/16 02:44:41;;;;;;;0.10;0.10;;;5.50;99.90;;;;;;4868311;29;20063;-89
2021/03/16 02:47:08;;;;;;;0.10;0.10;;;5.50;99.90;;;;;;4870666;29;20047;-88
2021/03/16 02:49:37;;;;;;;0.00;0.00;;;5.40;99.90;;;;;;4869765;29;20044;-89
2021/03/16 02:52:21;;;;;;;0.20;0.20;;;5.40;99.90;;;;;;4883848;29;20040;-91
2021/03/16 02:54:49;;;;;;;1.35;0.43;;;5.40;99.90;;;;;;4867399;29;20481;-92
2021/03/16 02:57:16;;;;;;;4.25;2.50;;;5.20;99.90;;;;;;4873447;29;20548;-91
2021/03/16 02:59:44;;;;;;;0.10;0.10;;;5.30;99.90;;;;;;4865338;29;20036;-91
2021/03/16 03:02:14;;;;;;;1.02;0.98;;;5.30;99.90;;;;;;4849533;29;20276;-92
2021/03/16 03:04:45;;;;;;;1.50;0.57;;;5.40;99.90;;;;;;4861592;29;20039;-90
2021/03/16 03:07:12;;;;;;;1.23;1.13;;;5.40;99.90;;;;;;4975081;28;20509;-91
2021/03/16 03:09:39;;;;;;;0.10;0.10;;;5.30;99.90;;;;;;4991303;28;20034;-91
2021/03/16 03:12:09;;;;;;;0.15;0.15;;;5.10;99.90;;;;;;4982791;28;20491;-91
2021/03/16 03:14:37;;;;;;;4.57;1.65;;;5.00;99.90;;;;;;4985255;28;20061;-91
2021/03/16 03:17:05;;;;;;;0.50;0.50;;;4.80;99.90;;;;;;4984346;28;20097;-90
2021/03/16 03:19:31;;;;;;;1.67;1.45;;;4.60;99.90;;;;;;4986707;28;20026;-91
2021/03/16 03:22:25;;;;;;;0.20;0.20;;;4.70;23.60;;;;;;4980583;28;20034;-90
2021/03/16 03:24:56;;;;;;;0.20;0.20;;;4.60;99.90;;;;;;4988842;28;20034;-91
2021/03/16 03:27:30;;;;;;;0.25;0.25;;;4.80;99.90;;;;;;4991650;28;20465;-91
2021/03/16 03:29:57;;;;;;;2.65;0.90;;;4.90;99.90;;;;;;4981531;28;20035;-90
2021/03/16 03:32:27;;;;;;;0.00;0.00;;;4.90;99.90;;;;;;4981865;28;20030;-90
2021/03/16 03:34:54;;;;;;;0.35;0.35;;;5.10;99.90;;;;;;4982324;28;20034;-90
2021/03/16 03:37:23;;;;;;;;;;;5.00;99.40;;;;;;4989026;28;20030;-90
2021/03/16 03:39:49;;;;;;;0.10;0.10;;;5.10;13.70;;;;;;4985307;28;19918;-89
2021/03/16 03:42:18;;;;;;;0.40;0.40;;;5.10;1.00;;;;;;4983517;28;20525;-88
2021/03/16 03:44:47;;;;;;;0.20;0.20;;;5.10;1.00;;;;;;4984745;28;20161;-88
2021/03/16 03:47:15;;;;;;;0.45;0.45;;;5.10;1.00;;;;;;4985333;28;20038;-89
2021/03/16 03:49:42;;;;;;;0.40;0.40;;;4.90;1.00;;;;;;4985814;28;20088;-89
2021/03/16 03:52:10;;;;;;;;;;;4.90;1.00;;;;;;4983959;28;20030;-89
2021/03/16 03:54:36;;;;;;;1.10;0.70;;;4.80;10.40;;;;;;4986483;28;19913;-89
2021/03/16 03:57:04;;;;;;;1.55;1.45;;;4.70;16.80;;;;;;4983224;28;20784;-89
2021/03/16 03:59:30;;;;;;;0.40;0.40;;;4.80;94.80;;;;;;4975851;28;20045;-88
2021/03/16 04:01:57;;;;;;;0.25;0.25;;;4.70;99.90;;;;;;4977576;28;20037;-89
2021/03/16 04:04:27;;;;;;;0.30;0.30;;;4.60;99.90;;;;;;4992779;28;20109;-89
2021/03/16 04:06:54;;;;;;;0.30;0.30;;;4.80;99.90;;;;;;4986226;28;20034;-89
2021/03/16 04:09:20;;;;;;;4.00;1.75;;;4.80;63.80;;;;;;4980139;28;20596;-90
2021/03/16 04:11:47;;;;;;;0.10;0.10;;;4.70;59.30;;;;;;4982984;28;20031;-90
2021/03/16 04:14:14;;;;;;;0.50;0.50;;;4.70;36.20;;;;;;4982553;28;20027;-90
2021/03/16 04:16:40;;;;;;;0.20;0.20;;;4.60;6.00;;;;;;4978065;28;20080;-90
2021/03/16 04:19:07;;;;;;;0.25;0.25;;;4.60;31.80;;;;;;4986024;28;20109;-88
2021/03/16 04:21:33;;;;;;;0.60;0.60;;;4.70;1.00;;;;;;4983891;28;20034;-89
2021/03/16 04:23:59;;;;;;;0.10;0.10;;;4.70;1.00;;;;;;4986254;28;20851;-89
2021/03/16 04:26:25;;;;;;;0.93;0.55;;;4.60;1.00;;;;;;4985332;28;20540;-88
2021/03/16 04:28:51;;;;;;;0.40;0.40;;;4.80;1.00;;;;;;4984563;28;20096;-88
2021/03/16 04:31:17;;;;;;;1.23;1.13;;;4.70;99.90;;;;;;4987327;28;20402;-89
2021/03/16 04:33:42;;;;;;;0.10;0.10;;;4.50;1.00;;;;;;4984464;28;20034;-89
2021/03/16 04:36:08;;;;;;;0.40;0.40;;;4.50;1.00;;;;;;4981213;28;20035;-88
2021/03/16 04:38:34;;;;;;;0.80;0.80;;;4.60;1.00;;;;;;4983268;28;20081;-88
2021/03/16 04:41:00;;;;;;;0.40;0.40;;;4.60;1.00;;;;;;4981271;28;20077;-88
2021/03/16 04:43:26;;;;;;;0.20;0.20;;;4.50;1.00;;;;;;4986301;28;20882;-89
2021/03/16 04:45:52;;;;;;;0.65;0.65;;;4.50;1.00;;;;;;4985172;28;20121;-90
2021/03/16 04:48:18;;;;;;;6.45;2.08;;;4.50;1.00;;;;;;4985848;28;20069;-90
2021/03/16 04:50:43;;;;;;;0.00;0.00;;;4.50;99.90;;;;;;4982482;28;20522;-89
2021/03/16 04:53:10;;;;;;;0.90;0.85;;;4.50;99.90;;;;;;4982592;28;20053;-89
2021/03/16 04:55:35;;;;;;;0.10;0.10;;;4.50;99.90;;;;;;4980084;28;20030;-88
2021/03/16 04:58:02;;;;;;;1.08;1.00;;;4.50;99.90;;;;;;4984599;28;20026;-87
2021/03/16 05:00:27;;;;;;;0.10;0.10;;;4.60;99.90;;;;;;4981956;28;20058;-88
2021/03/16 05:02:53;;;;;;;0.10;0.10;;;4.60;99.90;;;;;;4985975;28;20030;-88
2021/03/16 05:05:19;;;;;;;1.53;1.03;;;4.40;99.90;;;;;;4984908;28;20030;-88
2021/03/16 05:07:45;;;;;;;0.13;0.13;;;4.50;99.90;;;;;;4983018;28;20038;-90
2021/03/16 05:10:12;;;;;;;0.10;0.10;;;4.40;99.90;;;;;;4983523;28;20041;-88
2021/03/16 05:12:38;;;;;;;0.10;0.10;;;4.40;99.90;;;;;;4985049;28;20038;-89
2021/03/16 05:15:06;;;;;;;0.25;0.25;;;4.40;99.90;;;;;;4982338;28;20042;-90
2021/03/16 05:17:32;;;;;;;0.10;0.10;;;4.40;99.90;;;;;;4990384;28;20033;-91
2021/03/16 05:19:57;;;;;;;0.45;0.45;;;4.40;99.90;;;;;;4986384;28;20053;-92
2021/03/16 05:22:23;;;;;;;0.10;0.10;;;4.40;99.90;;;;;;4992086;28;20080;-93
2021/03/16 05:24:49;;;;;;;0.10;0.10;;;4.30;99.90;;;;;;4992574;28;20057;-92
2021/03/16 05:27:15;;;;;;;0.57;0.57;;;4.20;99.90;;;;;;4975890;28;20046;-91
2021/03/16 05:29:41;;;;;;;0.25;0.25;;;4.20;99.90;;;;;;4988556;28;20026;-90
2021/03/16 05:32:07;;;;;;;0.85;0.85;;;4.30;99.90;;;;;;4990455;28;20037;-90
2021/03/16 05:34:32;;;;;;;0.70;0.70;;;4.30;99.90;;;;;;4986925;28;20108;-91
2021/03/16 05:36:59;;;;;;;0.85;0.82;;;4.20;99.90;;;;;;4990496;28;20117;-90
2021/03/16 05:39:24;;;;;;;0.83;0.83;;;4.10;99.90;;;;;;4994405;28;20030;-89
2021/03/16 05:42:01;;;;;;;0.30;0.30;;;4.10;99.90;;;;;;4995174;28;20307;-92
2021/03/16 05:44:28;;;;;;;0.13;0.13;;;4.00;99.90;;;;;;4997112;28;20034;-92
2021/03/16 05:46:54;;;;;;;;;;;4.10;99.90;;;;;;4976819;28;20022;-89
2021/03/16 05:49:23;;;;;;;0.10;0.10;;;4.00;99.90;;;;;;4990827;28;19988;-92
2021/03/16 05:51:50;;;;;;;0.22;0.22;;;4.00;99.90;;;;;;4991668;28;20394;-90
2021/03/16 05:54:17;;;;;;;0.65;0.65;;;4.10;99.90;;;;;;4989484;28;20030;-90
2021/03/16 05:56:43;;;;;;;0.20;0.20;;;4.10;99.90;;;;;;4980403;28;20491;-91
2021/03/16 05:59:09;;;;;;;0.63;0.63;;;4.00;99.90;;;;;;4981823;28;20140;-89
2021/03/16 06:01:35;;;;;;;0.38;0.38;;;4.10;99.90;;;;;;4987376;28;20521;-91
2021/03/16 06:04:02;;;;;;;0.55;0.55;;;4.10;99.90;;;;;;4993072;28;20169;-93
2021/03/16 06:06:30;;;;;;;9.32;1.67;;;4.10;99.90;;;;;;4985703;28;20107;-94
2021/03/16 06:08:56;;;;;;;0.63;0.63;;;4.00;99.90;;;;;;4975379;28;20030;-92
2021/03/16 06:11:23;;;;;;;0.10;0.10;;;4.10;99.90;;;;;;4989174;28;20475;-93
2021/03/16 06:13:52;;;;;;;0.10;0.10;;;4.00;99.90;;;;;;4996124;28;20027;-91
2021/03/16 06:16:18;;;;;;;0.80;0.80;;;4.20;99.90;;;;;;4991081;28;20454;-94
2021/03/16 06:18:46;;;;;;;0.47;0.47;;;4.30;99.90;;;;;;4996080;28;20022;-94
2021/03/16 06:21:17;;;;;;;0.88;0.75;;;4.10;99.90;;;;;;4982052;28;20125;-94
2021/03/16 06:23:55;;;;;;;0.50;0.50;;;3.90;99.90;;;;;;4992767;28;20113;-89
2021/03/16 06:26:26;;;;;;;0.40;0.40;;;3.80;99.90;;;;;;4989430;28;20038;-91
2021/03/16 06:28:52;;;;;;;0.38;0.32;;;4.40;99.90;;;;;;4987759;28;20529;-92
2021/03/16 06:31:25;;;;;;;3.83;1.50;;;4.80;99.90;;;;;;4998152;28;20029;-89
2021/03/16 06:33:51;;;;;;;0.10;0.10;;;5.20;99.90;;;;;;4982417;28;20069;-89
2021/03/16 06:36:17;;;;;;;0.52;0.52;;;5.80;99.90;;;;;;4988223;28;20069;-89
2021/03/16 06:38:44;;;;;;;1.20;1.03;;;6.30;99.90;;;;;;4990717;28;20085;-89
2021/03/16 06:41:15;;;;;;;0.40;0.40;;;6.30;99.90;;;;;;4976121;28;20329;-88
2021/03/16 06:43:43;;;;;;;2.90;2.30;;;6.80;99.90;;;;;;4972392;28;20034;-90
2021/03/16 06:46:09;;;;;;;0.45;0.45;;;7.50;99.90;;;;;;4972289;28;20038;-91
2021/03/16 06:48:37;;;;;;;1.30;1.20;;;7.30;99.90;;;;;;4986798;28;20121;-88
2021/03/16 06:51:12;;;;;;;1.23;1.20;;;7.80;99.90;;;;;;4989730;28;20057;-88
2021/03/16 06:53:38;;;;;;;0.73;0.73;;;8.60;99.90;;;;;;4981722;28;20121;-88
2021/03/16 06:56:04;;;;;;;1.47;0.87;;;8.50;99.90;;;;;;4990003;28;20030;-89
2021/03/16 06:58:33;;;;;;;0.68;0.68;;;9.20;99.90;;;;;;4993276;28;20531;-92
2021/03/16 07:01:18;;;;;;;0.75;0.75;;;9.90;99.90;;;;;;4993412;28;20041;-91
2021/03/16 07:03:45;;;;;;;5.72;2.47;;;10.30;99.90;;;;;;4992578;28;20027;-92
2021/03/16 07:06:21;;;;;;;0.63;0.63;;;10.50;99.90;;;;;;5001797;28;20033;-92
2021/03/16 07:08:49;;;;;;;0.30;0.30;;;10.90;99.90;;;;;;4981509;28;20031;-90
2021/03/16 07:11:21;;;;;;;0.85;0.85;;;10.10;99.90;;;;;;4991345;28;20034;-91
2021/03/16 07:13:47;;;;;;;0.20;0.20;;;10.60;99.90;;;;;;4993415;28;20057;-91
2021/03/16 07:16:13;;;;;;;0.77;0.77;;;11.30;99.90;;;;;;4985685;28;20097;-91
2021/03/16 07:18:41;;;;;;;1.00;1.00;;;11.50;99.90;;;;;;4973424;28;20027;-91
2021/03/16 07:21:18;;;;;;;7.00;1.25;;;12.10;99.90;;;;;;4987180;28;20113;-91
2021/03/16 07:23:48;;;;;;;1.88;1.52;;;12.30;99.90;;;;;;4992398;28;20034;-91
2021/03/16 07:26:15;;;;;;;4.00;3.25;;;12.10;99.90;;;;;;4988643;28;20392;-91
2021/03/16 07:28:45;;;;;;;3.92;2.13;;;11.40;99.90;;;;;;4988639;28;20030;-92
2021/03/16 07:31:12;;;;;;;1.33;1.17;;;12.80;99.90;;;;;;4988090;28;20026;-92
2021/03/16 07:33:38;;;;;;;1.10;1.02;;;13.70;99.90;;;;;;4974647;28;20030;-91
2021/03/16 07:36:04;;;;;;;0.73;0.73;;;13.50;99.90;;;;;;4986604;28;20034;-92
2021/03/16 07:38:30;;;;;;;0.20;0.20;;;13.00;99.90;;;;;;4991930;28;20265;-89
2021/03/16 07:41:02;;;;;;;0.77;0.47;;;13.00;99.90;;;;;;4985750;28;20030;-92
2021/03/16 07:43:36;;;;;;;0.98;0.90;;;12.60;99.90;;;;;;4987468;28;20458;-92
2021/03/16 07:46:17;;;;;;;0.20;0.20;;;13.30;99.90;;;;;;4974195;28;20031;-92
2021/03/16 07:48:51;;;;;;;0.38;0.38;;;13.20;99.90;;;;;;4990804;28;20034;-93
2021/03/16 07:51:19;;;;;;;0.47;0.47;;;13.70;99.90;;;;;;4991754;28;20029;-92
2021/03/16 07:54:00;;;;;;;0.52;0.52;;;14.60;99.90;;;;;;4972749;28;20042;-91
2021/03/16 07:56:28;;;;;;;0.40;0.40;;;14.80;99.90;;;;;;4977756;28;20034;-93
2021/03/16 07:58:54;;;;;;;1.80;0.50;;;15.00;99.90;;;;;;4984282;28;20043;-93
2021/03/16 08:01:21;;;;;;;3.88;0.45;;;16.30;99.90;;;;;;4974140;28;20023;-96
2021/03/16 08:03:47;;;;;;;0.30;0.30;;;15.30;99.90;;;;;;4974423;28;20112;-94
2021/03/16 08:06:28;;;;;;;1.30;0.70;;;16.20;99.90;;;;;;4974633;28;20030;-96
2021/03/16 08:08:53;;;;;;;0.45;0.45;;;18.40;99.90;;;;;;4973560;28;20030;-92
2021/03/16 08:11:20;;;;;;;0.10;0.10;;;17.30;99.90;;;;;;4973688;28;20518;-92
2021/03/16 08:14:00;;;;;;;4.65;1.55;;;17.00;99.90;;;;;;4974405;28;20377;-93
2021/03/16 08:16:37;;;;;;;30.23;1.10;;;16.70;99.90;;;;;;4992521;28;20038;-91
2021/03/16 08:19:19;;;;;;;2.90;1.38;;;16.60;99.90;;;;;;4975466;28;20033;-93
2021/03/16 08:21:53;;;;;;;0.10;0.10;;;17.30;99.90;;;;;;4975567;28;20054;-93
2021/03/16 08:24:19;;;;;;;1.10;1.05;;;17.30;99.90;;;;;;4993231;28;20398;-94
2021/03/16 08:26:50;;;;;;;1.93;0.83;;;17.90;99.90;;;;;;4993560;28;20019;-94
2021/03/16 08:29:28;;;;;;;0.20;0.20;;;18.20;99.90;;;;;;4993493;28;20026;-94
2021/03/16 08:31:56;;;;;;;0.20;0.20;;;18.50;99.90;;;;;;4993138;28;20030;-95
2021/03/16 08:34:24;;;;;;;0.10;0.10;;;17.90;99.90;;;;;;4993336;28;20019;-94
2021/03/16 08:36:50;;;;;;;0.88;0.43;;;16.90;99.90;;;;;;4993513;28;20033;-94
2021/03/16 08:39:25;;;;;;;12.23;1.00;;;17.60;99.90;;;;;;4993497;28;20026;-95
2021/03/16 08:42:03;;;;;;;0.30;0.30;;;18.20;99.90;;;;;;4993142;28;20344;-94
2021/03/16 08:44:31;;;;;;;0.32;0.32;;;19.20;99.90;;;;;;4993239;28;20023;-94
2021/03/16 08:47:12;;;;;;;1.67;0.73;;;18.60;99.90;;;;;;4993300;28;20110;-94
2021/03/16 08:49:40;;;;;;;0.20;0.20;;;17.20;99.90;;;;;;4993089;28;20031;-95
2021/03/16 08:52:21;;;;;;;1.33;0.52;;;16.90;99.90;;;;;;4993251;28;20022;-95
2021/03/16 08:54:49;;;;;;;0.10;0.10;;;16.40;99.90;;;;;;4993111;28;20026;-95
2021/03/16 08:57:19;;;;;;;0.30;0.30;;;18.30;99.90;;;;;;4993315;28;20041;-95
2021/03/16 08:59:57;;;;;;;0.40;0.40;;;19.90;99.90;;;;;;4993039;28;20038;-94
2021/03/16 09:02:30;;;;;;;3.72;1.40;;;21.90;99.90;;;;;;4993149;28;20026;-95
2021/03/16 09:04:59;;;;;;;0.20;0.20;;;20.80;99.90;;;;;;4996872;28;20057;-94
2021/03/16 09:07:33;;;;;;;0.10;0.10;;;18.40;99.90;;;;;;4997029;28;20054;-94
2021/03/16 09:10:06;;;;;;;0.10;0.10;;;14.90;99.90;;;;;;4996799;28;20084;-94
2021/03/16 09:12:32;;;;;;;1.20;1.05;;;12.70;99.90;;;;;;4996968;28;20026;-94
2021/03/16 09:15:19;;;;;;;0.37;0.37;;;12.10;99.90;;;;;;4996760;28;20050;-94
2021/03/16 09:17:47;;;;;;;0.25;0.25;;;12.00;99.90;;;;;;4996378;28;20038;-94
2021/03/16 09:20:21;;;;;;;0.25;0.25;;;11.70;99.90;;;;;;4996559;28;20026;-94
2021/03/16 09:23:01;;;;;;;0.30;0.30;;;11.60;99.90;;;;;;4996583;28;20041;-94
2021/03/16 09:25:39;;;;;;;0.10;0.10;;;11.80;99.90;;;;;;4996387;28;20077;-93
2021/03/16 09:28:07;;;;;;;0.52;0.52;;;12.20;99.90;;;;;;4996362;28;20502;-94
2021/03/16 09:30:51;;;;;;;0.50;0.50;;;12.10;99.90;;;;;;4996258;28;20026;-95
2021/03/16 09:33:20;;;;;;;0.90;0.75;;;14.40;99.90;;;;;;4996296;28;20038;-95
2021/03/16 09:35:59;;;;;;;0.10;0.10;;;14.40;99.90;;;;;;4996435;28;20022;-94
2021/03/16 09:38:25;;;;;;;0.20;0.20;;;11.90;99.90;;;;;;4996531;28;20030;-94
2021/03/16 09:40:51;;;;;;;1.07;0.83;;;12.50;99.90;;;;;;4996361;28;20076;-95
2021/03/16 09:43:23;;;;;;;36.92;1.05;;;12.70;99.90;;;;;;4996298;28;20026;-94
2021/03/16 09:45:54;;;;;;;0.15;0.15;;;12.30;99.90;;;;;;4996301;28;20038;-94
2021/03/16 09:48:21;;;;;;;0.50;0.50;;;11.70;99.90;;;;;;4996177;28;20041;-94
2021/03/16 09:50:47;;;;;;;0.80;0.80;;;10.90;99.90;;;;;;4996391;28;20117;-94
2021/03/16 09:53:15;;;;;;;0.10;0.10;;;11.40;99.90;;;;;;4996135;28;20029;-94
2021/03/16 09:55:42;;;;;;;0.10;0.10;;;12.90;99.90;;;;;;4996178;28;20037;-94
2021/03/16 09:58:18;;;;;;;;;;;12.90;99.90;;;;;;4996638;28;20022;-94
2021/03/16 10:00:48;;;;;;;3.22;1.38;;;12.40;99.90;;;;;;4996118;28;20282;-95
2021/03/16 10:03:16;;;;;;;1.35;1.25;;;12.70;99.90;;;;;;4996226;28;20045;-94
2021/03/16 10:05:42;;;;;;;0.10;0.10;;;11.90;99.90;;;;;;4996056;28;20096;-94
2021/03/16 10:08:08;;;;;;;0.20;0.20;;;12.60;99.90;;;;;;4995870;28;20026;-94
2021/03/16 10:10:37;;;;;;;0.10;0.10;;;13.80;99.90;;;;;;4995516;28;20018;-95
2021/03/16 10:13:05;;;;;;;0.15;0.15;;;14.00;99.90;;;;;;4995767;28;20031;-94
2021/03/16 10:15:43;;;;;;;0.22;0.22;;;12.70;99.90;;;;;;4994363;28;20105;-94
2021/03/16 10:18:13;;;;;;;0.30;0.30;;;12.90;99.90;;;;;;4995627;28;20031;-94
2021/03/16 10:20:42;;;;;;;1.02;0.68;;;13.40;99.90;;;;;;4995617;28;20105;-94
2021/03/16 10:23:11;;;;;;;0.20;0.20;;;12.10;99.90;;;;;;4995777;28;20037;-94
2021/03/16 10:25:38;;;;;;;0.40;0.40;;;11.50;99.90;;;;;;4995698;28;20045;-94
2021/03/16 10:28:06;;;;;;;0.45;0.45;;;12.10;99.90;;;;;;4995969;28;20026;-94
2021/03/16 10:30:40;;;;;;;0.20;0.20;;;13.00;99.90;;;;;;4995536;28;20030;-94
2021/03/16 10:33:08;;;;;;;0.28;0.28;;;13.40;99.90;;;;;;4995427;28;20394;-94
2021/03/16 10:35:36;;;;;;;0.10;0.10;;;16.50;99.90;;;;;;4995558;28;20033;-95
2021/03/16 10:38:05;;;;;;;0.38;0.38;;;15.00;99.90;;;;;;4995386;28;20026;-95
2021/03/16 10:40:32;;;;;;;0.17;0.17;;;16.00;99.90;;;;;;4995440;28;20030;-94
2021/03/16 10:42:58;;;;;;;0.20;0.20;;;14.20;99.90;;;;;;4995167;28;20066;-94
2021/03/16 10:45:25;;;;;;;0.40;0.40;;;13.00;99.90;;;;;;4995604;28;20035;-94
2021/03/16 10:47:52;;;;;;;1.85;1.55;;;12.50;99.90;;;;;;4995226;28;20065;-94
2021/03/16 10:50:18;;;;;;;0.10;0.10;;;19.00;99.90;;;;;;4995153;28;20077;-94
2021/03/16 10:52:44;;;;;;;0.23;0.23;;;17.30;99.90;;;;;;4995302;28;20034;-95
2021/03/16 10:55:10;;;;;;;0.10;0.10;;;14.10;99.90;;;;;;4994919;28;20122;-94
2021/03/16 10:57:36;;;;;;;0.45;0.45;;;14.70;99.90;;;;;;4994645;28;20379;-94
2021/03/16 11:00:05;;;;;;;0.83;0.77;;;16.60;99.90;;;;;;4995049;28;20038;-95
2021/03/16 11:02:30;;;;;;;0.28;0.28;;;16.50;99.90;;;;;;4994417;28;20030;-94
2021/03/16 11:04:56;;;;;;;0.50;0.50;;;14.70;99.90;;;;;;4995138;28;20085;-94
2021/03/16 11:07:22;;;;;;;1.33;1.23;;;15.80;99.90;;;;;;4994958;28;20022;-94
2021/03/16 11:09:48;;;;;;;0.20;0.20;;;17.90;99.90;;;;;;4994993;28;20022;-94
2021/03/16 11:15:38;;;;;;;1.80;1.17;;;16.20;99.90;;;;;;4994937;28;20045;-94
2021/03/16 11:18:04;;;;;;;0.15;0.15;;;12.50;99.90;;;;;;4994729;28;20022;-94
2021/03/16 11:20:30;;;;;;;1.30;0.87;;;11.40;99.90;;;;;;4994238;28;20125;-93
2021/03/16 11:22:56;;;;;;;0.43;0.37;;;14.20;99.90;;;;;;4994615;28;20030;-95
2021/03/16 11:25:22;;;;;;;0.97;0.83;;;14.00;99.90;;;;;;4994001;28;20026;-94
2021/03/16 11:27:47;;;;;;;0.50;0.50;;;12.50;99.90;;;;;;4993991;28;20034;-93
2021/03/16 11:30:15;;;;;;;0.53;0.53;;;14.30;99.90;;;;;;4994266;28;20026;-94
2021/03/16 11:32:41;;;;;;;0.25;0.25;;;17.20;99.90;;;;;;4993970;28;20026;-94
2021/03/16 11:35:07;;;;;;;0.52;0.30;;;14.60;99.90;;;;;;4994497;28;20022;-95
2021/03/16 11:37:33;;;;;;;0.22;0.22;;;17.60;99.90;;;;;;4993843;28;20022;-94
2021/03/16 11:39:58;;;;;;;0.20;0.20;;;17.80;99.90;;;;;;4995389;28;20398;-94
2021/03/16 11:42:24;;;;;;;0.20;0.20;;;15.90;99.90;;;;;;4993836;28;20037;-94
2021/03/16 11:44:50;;;;;;;0.10;0.10;;;13.40;99.90;;;;;;4993929;28;20030;-94
2021/03/16 11:47:17;;;;;;;2.73;1.20;;;12.40;99.90;;;;;;4993755;28;20026;-94
2021/03/16 11:49:43;;;;;;;;;;;12.00;99.90;;;;;;4994410;28;20114;-94
2021/03/16 11:52:09;;;;;;;0.28;0.28;;;12.00;99.90;;;;;;4993674;28;19905;-94
2021/03/16 11:54:35;;;;;;;0.20;0.20;;;13.00;99.90;;;;;;4993835;28;20034;-95
2021/03/16 11:57:01;;;;;;;0.30;0.30;;;13.50;99.90;;;;;;4994012;28;20773;-94
2021/03/16 11:59:26;;;;;;;0.23;0.23;;;12.80;99.90;;;;;;4993678;28;20553;-94
2021/03/16 12:01:52;;;;;;;1.17;0.40;;;11.80;99.90;;;;;;4993628;28;20034;-94
2021/03/16 12:04:18;;;;;;;0.28;0.28;;;12.20;99.90;;;;;;4993576;28;20034;-94
2021/03/16 12:06:44;;;;;;;0.10;0.10;;;12.60;99.90;;;;;;4993621;28;20033;-95
2021/03/16 12:09:10;;;;;;;0.25;0.25;;;13.00;99.90;;;;;;4993821;28;20054;-94
2021/03/16 12:11:35;;;;;;;0.53;0.53;;;13.70;99.90;;;;;;4993700;28;20493;-94
2021/03/16 12:14:02;;;;;;;0.20;0.20;;;14.50;99.90;;;;;;4993783;28;20030;-94
2021/03/16 12:16:27;;;;;;;0.10;0.10;;;14.10;99.90;;;;;;4994730;28;20054;-94
2021/03/16 12:18:53;;;;;;;0.10;0.10;;;13.20;99.90;;;;;;4993600;28;20030;-94
2021/03/16 12:21:19;;;;;;;0.90;0.70;;;13.00;99.90;;;;;;4993266;28;20030;-94
2021/03/16 12:23:46;;;;;;;0.33;0.33;;;14.00;99.90;;;;;;4993642;28;20030;-94
2021/03/16 12:26:12;;;;;;;0.30;0.30;;;14.90;99.90;;;;;;4993393;28;20027;-94
2021/03/16 12:28:39;;;;;;;0.10;0.10;;;13.70;99.90;;;;;;4992950;28;20030;-94
2021/03/16 12:31:05;;;;;;;0.47;0.47;;;13.40;99.90;;;;;;4992897;28;20026;-94
2021/03/16 12:33:31;;;;;;;0.40;0.40;;;12.80;99.90;;;;;;4993363;28;20030;-94
2021/03/16 12:35:57;;;;;;;0.10;0.10;;;13.70;99.90;;;;;;4993413;28;20034;-94
2021/03/16 12:38:22;;;;;;;0.50;0.50;;;14.30;99.90;;;;;;4993298;28;20053;-95
2021/03/16 12:40:48;;;;;;;1.10;0.50;;;15.10;99.90;;;;;;4993165;28;20109;-94
2021/03/16 12:43:14;;;;;;;0.40;0.40;;;13.70;99.90;;;;;;4993480;28;20026;-94
2021/03/16 12:45:43;;;;;;;0.33;0.27;;;14.40;99.90;;;;;;4993415;28;20100;-95
2021/03/16 12:48:10;;;;;;;0.20;0.20;;;13.80;99.90;;;;;;4993319;28;20033;-94
2021/03/16 12:50:36;;;;;;;0.10;0.10;;;13.00;99.90;;;;;;4993366;28;20057;-94
2021/03/16 12:53:04;;;;;;;0.47;0.40;;;12.40;99.90;;;;;;4993833;28;20041;-95
2021/03/16 12:55:31;;;;;;;0.30;0.30;;;12.00;99.90;;;;;;4993324;28;20030;-95
2021/03/16 12:57:56;;;;;;;0.88;0.30;;;11.90;99.90;;;;;;4992721;28;20029;-94
2021/03/16 13:00:23;;;;;;;0.27;0.27;;;12.50;99.90;;;;;;4993164;28;20034;-94
2021/03/16 13:02:48;;;;;;;5.18;1.25;;;12.40;99.90;;;;;;4993340;28;20053;-95
2021/03/16 13:05:14;;;;;;;0.20;0.20;;;12.80;99.90;;;;;;4993200;28;20446;-95